Flight Track Log - Related Links

Times and Time Zones

All times are in EDT time to prevent confusion due to time zone crossing. See the GJS6241 flight status page for this flight to view local times or setup timezone preferences in your user account.

Time Position Orientation Groundspeed Altitude Reporting Facility
EDT Latitude Longitude Course Direction KTS MPH feet Rate Location/Type
Tue 07:46:16 PM 40.7667 -73.8500 114° Southeast 152 175 1,300  Level New York TRACON
Tue 07:47:16 PM 40.7500 -73.8000 114° Southeast 207 238 3,800 2,650 Climbing New York TRACON
Tue 07:48:16 PM 40.8000 -73.8000 360° North 225 259 6,600 2,950 Climbing New York TRACON
Tue 07:49:16 PM 40.8333 -73.8667 303° West 248 285 9,700 2,600 Climbing New York TRACON
Tue 07:50:16 PM 40.8500 -73.9500 285° West 263 303 11,800 2,300 Climbing New York TRACON
Tue 07:51:16 PM 40.8167 -74.0500 246° West 288 331 14,300 1,600 Climbing New York TRACON
Tue 07:52:16 PM 40.7833 -74.1500 246° West 304 350 15,000 350 Climbing New York TRACON
Tue 07:53:16 PM 40.7333 -74.2500 237° Southwest 361 415 15,000 1,146 Level New York TRACON
Tue 07:55:35 PM 40.6133 -74.4972 237° Southwest 360 414 18,800 1,788 Climbing New York Center
Tue 07:56:34 PM 40.5556 -74.6089 236° Southwest 366 421 20,900 2,118 Climbing New York Center
Tue 07:57:34 PM 40.4933 -74.7200 234° Southwest 373 429 23,000 2,083 Climbing New York Center
Tue 07:58:35 PM 40.4353 -74.8339 236° Southwest 373 429 25,100 2,083 Climbing New York Center
Tue 07:59:35 PM 40.3756 -74.9394 233° Southwest 373 429 27,200 1,400 Climbing New York Center
Tue 08:00:35 PM 40.3131 -75.0497 233° Southwest 368 423 27,900 645 Climbing New York Center
Tue 08:01:36 PM 40.2483 -75.1683 234° Southwest 387 445 28,500 800 Climbing New York Center
Tue 08:02:35 PM 40.1811 -75.2917 235° Southwest 408 470 29,500 1,200 Climbing New York Center
Tue 08:03:36 PM 40.1097 -75.4119 232° Southwest 421 484 30,900 1,400 Climbing New York Center
Tue 08:04:35 PM 40.0325 -75.5206 227° Southwest 421 484 32,300 1,412 Climbing New York Center
Tue 08:05:35 PM 39.9531 -75.6289 226° Southwest 421 484 33,700 843 Climbing New York Center
Tue 08:06:36 PM 39.8797 -75.7375 229° Southwest 421 484 34,000 -1,277 Climbing New York Center
Tue 08:08:57 PM 39.7044 -76.0150 231° Southwest 428 493 29,400 -2,090 Descending Washington Center
Tue 08:09:57 PM 39.6311 -76.1358 232° Southwest 433 498 27,000 -2,380 Descending Washington Center
Tue 08:10:58 PM 39.5556 -76.2483 229° Southwest 433 498 24,600 -2,380 Descending Washington Center
Tue 08:11:58 PM 39.4819 -76.3606 230° Southwest 428 493 22,200 -1,300 Descending Washington Center
Tue 08:12:58 PM 39.4125 -76.4672 230° Southwest 428 493 22,000 -100 Descending Washington Center
Tue 08:13:58 PM 39.3428 -76.5792 231° Southwest 396 456 22,000  Level Washington Center
Tue 08:14:57 PM 39.2650 -76.6800 225° Southwest 401 461 22,000  Level Washington Center
Tue 08:15:58 PM 39.2011 -76.8022 236° Southwest 408 470 22,000 -321 Level Washington Center
Tue 08:17:08 PM 39.1167 -76.9500 234° Southwest 415 478 21,300 -785 Descending Potomac TRACON
Tue 08:18:08 PM 39.0333 -77.0500 223° Southwest 404 465 20,300 -1,636 Descending Potomac TRACON
Tue 08:19:09 PM 38.9500 -77.1333 218° Southwest 406 467 18,000 -2,579 Descending Potomac TRACON
Tue 08:20:09 PM 38.8667 -77.2333 223° Southwest 362 417 15,100 -2,800 Descending Potomac TRACON
Tue 08:21:09 PM 38.8000 -77.3167 224° Southwest 328 377 12,400 -1,101 Descending Potomac TRACON
Tue 08:22:58 PM 38.6761 -77.4425 218° Southwest 344 396 12,000 -143 Descending Washington Center
Tue 08:23:57 PM 38.6061 -77.5203 221° Southwest 344 396 12,000  Level Washington Center
Tue 08:24:58 PM 38.5361 -77.5956 220° Southwest 344 396 12,000  Level Washington Center
Tue 08:25:58 PM 38.4639 -77.6706 219° Southwest 338 389 12,000  Level Washington Center
Tue 08:26:58 PM 38.3958 -77.7456 221° Southwest 333 383 12,000  Level Washington Center
Tue 08:27:57 PM 38.3278 -77.8203 221° Southwest 333 383 12,000 -252 Level Washington Center
Tue 08:28:57 PM 38.2658 -77.8897 221° Southwest 308 354 11,500 -1,300 Descending Washington Center
Tue 08:29:57 PM 38.2414 -77.9764 250° West 281 323 9,400 -2,050 Descending Washington Center
Tue 08:30:57 PM 38.2250 -78.0631 256° West 262 302 7,400 -1,983 Descending Washington Center
Tue 08:31:58 PM 38.2250 -78.1556 270° West 257 296 5,400 -1,850 Descending Washington Center
Tue 08:32:57 PM 38.2339 -78.2350 278° West 257 296 3,700 -1,300 Descending Washington Center
Tue 08:33:58 PM 38.2422 -78.3253 277° West 240 276 2,800 -545 Descending Washington Center
Tue 08:34:58 PM 38.2389 -78.3808 266° West 202 232 2,600 -454 Descending Washington Center
Tue 08:35:57 PM 38.2089 -78.4167 223° Southwest 151 174 1,900 -615 Descending Washington Center
Tue 08:38:13 PM 38.1333 -78.4500 199° South 122 140 600 -574 Descending Potomac TRACON
Tue 08:40:00 PM 38.1386 -78.4529 152° Southeast  Level Estimated
Tue 08:47:00 PM 38.1333 -78.4500 302° West  Level FlightAware Approximate
Tue 08:48:00 PM 38.1386 -78.4529 302° West  Level Estimated
Tue 08:49:00 PM 38.1333 -78.4500 302° West  Level FlightAware Approximate
Tue 08:50:00 PM 38.1386 -78.4529 302° West  Level Estimated
Tue 08:51:00 PM 38.1333 -78.4500 302° West  Level FlightAware Approximate
Tue 08:52:00 PM 38.1386 -78.4529 302° West  Level Estimated
Tue 08:53:00 PM 38.1333 -78.4500 302° West  Level FlightAware Approximate
Tue 08:54:00 PM 38.1386 -78.4529 302° West  Level Estimated
Tue 08:55:00 PM 38.1333 -78.4500 302° West  Level FlightAware Approximate
Tue 08:56:00 PM 38.1386 -78.4529 302° West  Level Estimated
Tue 08:57:00 PM 38.1333 -78.4500 302° West  Level FlightAware Approximate

Login

Don't have an account? Register now (free) for customized features, flight alerts, and more!